Time;durP1;ratioP1;P1;durP2;ratioP2;P2;SDS_P1;SDS_P2;PMS_P1;PMS_P2;Temp;Humidity;BMP_temperature;BMP_pressure;BME280_temperature;BME280_humidity;BME280_pressure;Samples;Min_cycle;Max_cycle;Signal;HPM_P1;HPM_P2
2021/10/19 00:00:27;;;;;;;11.17;10.07;;;13.10;99.90;;;;;;5054424;28;20427;-67
2021/10/19 00:02:53;;;;;;;10.73;9.40;;;13.10;99.90;;;;;;5054534;28;20502;-67
2021/10/19 00:05:19;;;;;;;11.40;10.20;;;13.00;99.90;;;;;;5054566;28;20407;-67
2021/10/19 00:07:45;;;;;;;9.87;9.03;;;13.00;99.90;;;;;;5054362;28;20813;-67
2021/10/19 00:10:12;;;;;;;11.07;9.77;;;13.00;99.90;;;;;;5053927;28;20315;-67
2021/10/19 00:12:39;;;;;;;10.83;9.70;;;12.90;99.90;;;;;;5054232;28;20179;-67
2021/10/19 00:15:08;;;;;;;11.00;9.93;;;13.10;99.90;;;;;;5054226;28;20493;-67
2021/10/19 00:17:39;;;;;;;10.73;9.63;;;12.80;99.90;;;;;;5054217;28;20411;-67
2021/10/19 00:20:05;;;;;;;10.93;10.00;;;12.80;99.90;;;;;;5053823;28;20439;-67
2021/10/19 00:22:31;;;;;;;11.87;9.57;;;12.80;99.90;;;;;;5054173;28;20813;-67
2021/10/19 00:24:57;;;;;;;11.07;9.43;;;12.80;99.90;;;;;;5054189;28;20410;-67
2021/10/19 00:27:22;;;;;;;10.87;9.73;;;12.70;99.90;;;;;;5054079;28;20168;-67
2021/10/19 00:29:48;;;;;;;10.90;9.90;;;12.80;99.90;;;;;;5053505;28;20200;-66
2021/10/19 00:32:14;;;;;;;11.50;10.47;;;12.70;99.90;;;;;;5053196;28;20255;-67
2021/10/19 00:34:39;;;;;;;11.53;10.40;;;12.80;99.90;;;;;;5053853;28;20414;-66
2021/10/19 00:37:05;;;;;;;10.70;9.70;;;12.80;99.90;;;;;;5053959;28;20168;-67
2021/10/19 00:39:30;;;;;;;11.20;8.73;;;12.90;99.90;;;;;;5053536;28;20724;-67
2021/10/19 00:41:56;;;;;;;11.90;10.70;;;12.80;99.90;;;;;;5053702;28;20171;-67
2021/10/19 00:44:23;;;;;;;13.30;11.13;;;13.30;99.90;;;;;;5053738;28;20207;-67
2021/10/19 00:46:48;;;;;;;12.50;8.70;;;12.80;99.90;;;;;;5053797;28;20625;-67
2021/10/19 00:49:14;;;;;;;11.00;9.90;;;12.80;99.90;;;;;;5053169;28;20490;-67
2021/10/19 00:51:40;;;;;;;13.83;11.10;;;12.70;99.90;;;;;;5053534;28;20199;-67
2021/10/19 00:54:05;;;;;;;11.03;9.47;;;12.80;99.90;;;;;;5053465;28;20526;-66
2021/10/19 00:56:31;;;;;;;10.30;9.30;;;12.80;99.90;;;;;;5053378;28;20175;-67
2021/10/19 00:58:57;;;;;;;10.50;8.90;;;13.20;99.90;;;;;;5052781;28;20434;-67
2021/10/19 01:01:25;;;;;;;10.80;9.60;;;12.80;99.90;;;;;;5053325;28;20422;-67
2021/10/19 01:03:50;;;;;;;12.03;10.07;;;13.00;99.90;;;;;;5053379;28;20196;-67
2021/10/19 01:06:16;;;;;;;10.70;9.80;;;13.00;99.90;;;;;;5056584;28;20410;-67
2021/10/19 01:08:42;;;;;;;12.03;10.83;;;12.70;99.90;;;;;;5072782;28;20253;-67
2021/10/19 01:11:07;;;;;;;11.90;10.70;;;12.70;99.90;;;;;;5072955;28;20187;-67
2021/10/19 01:13:35;;;;;;;11.80;10.60;;;12.70;99.90;;;;;;5072986;28;20179;-67
2021/10/19 01:16:06;;;;;;;11.33;10.23;;;12.70;99.90;;;;;;5073152;28;20249;-67
2021/10/19 01:18:31;;;;;;;10.17;9.20;;;12.80;99.90;;;;;;5072696;28;20408;-67
2021/10/19 01:20:57;;;;;;;11.10;10.00;;;12.90;99.90;;;;;;5072674;28;20437;-67
2021/10/19 01:23:23;;;;;;;9.60;8.80;;;12.90;99.90;;;;;;5072617;28;20791;-67
2021/10/19 01:25:48;;;;;;;12.30;10.33;;;12.60;99.90;;;;;;5072790;28;20425;-67
2021/10/19 01:28:14;;;;;;;13.63;11.20;;;13.10;99.90;;;;;;5072679;28;20164;-67
2021/10/19 01:30:42;;;;;;;12.17;10.90;;;12.60;99.90;;;;;;5072540;28;20206;-66
2021/10/19 01:33:08;;;;;;;10.03;8.97;;;12.50;99.90;;;;;;5072754;28;20732;-67
2021/10/19 01:35:42;;;;;;;12.67;11.40;;;12.50;99.90;;;;;;5072361;28;20505;-67
2021/10/19 01:38:17;;;;;;;15.23;11.90;;;12.50;99.90;;;;;;5072249;28;20167;-67
2021/10/19 01:40:43;;;;;;;11.03;9.70;;;12.50;99.90;;;;;;5072440;28;20424;-67
2021/10/19 01:43:14;;;;;;;10.77;9.70;;;12.40;99.90;;;;;;5072118;28;20445;-67
2021/10/19 01:45:41;;;;;;;11.03;10.00;;;12.30;99.90;;;;;;5072473;28;20467;-66
2021/10/19 01:48:07;;;;;;;10.80;9.70;;;12.90;99.90;;;;;;5072199;28;20436;-66
2021/10/19 01:50:34;;;;;;;9.70;8.90;;;12.50;99.90;;;;;;5072118;28;20432;-67
2021/10/19 01:52:59;;;;;;;10.40;9.23;;;12.70;99.90;;;;;;5072373;28;20421;-67
2021/10/19 01:55:25;;;;;;;11.03;9.90;;;12.50;99.90;;;;;;5072363;28;20408;-67
2021/10/19 01:57:51;;;;;;;10.83;9.70;;;12.50;99.90;;;;;;5072741;28;20177;-67
2021/10/19 02:00:16;;;;;;;9.50;8.70;;;12.50;99.90;;;;;;5071960;28;20214;-67
2021/10/19 02:02:42;;;;;;;9.80;8.80;;;12.40;99.90;;;;;;5072213;28;20293;-67
2021/10/19 02:05:09;;;;;;;8.50;7.63;;;12.40;99.90;;;;;;5072263;28;20738;-66
2021/10/19 02:07:35;;;;;;;8.43;7.60;;;12.40;99.90;;;;;;5072317;28;20175;-66
2021/10/19 02:10:05;;;;;;;8.40;7.63;;;12.40;99.90;;;;;;5071633;28;20429;-67
2021/10/19 02:12:31;;;;;;;7.47;6.77;;;12.40;99.90;;;;;;5072228;28;20404;-67
2021/10/19 02:14:57;;;;;;;7.30;6.60;;;12.40;99.90;;;;;;5072217;28;20410;-67
2021/10/19 02:17:23;;;;;;;7.07;6.47;;;12.40;99.90;;;;;;5072162;28;20167;-66
2021/10/19 02:19:48;;;;;;;6.50;6.00;;;12.50;99.90;;;;;;5067538;28;20260;-66
2021/10/19 02:22:14;;;;;;;7.13;6.57;;;12.50;99.90;;;;;;5041832;28;20486;-67
2021/10/19 02:24:40;;;;;;;6.67;6.17;;;12.60;99.90;;;;;;5040611;28;20248;-67
2021/10/19 02:27:06;;;;;;;6.90;6.30;;;12.60;99.90;;;;;;5042202;28;20183;-66
2021/10/19 02:29:32;;;;;;;6.63;6.13;;;12.60;99.90;;;;;;5036931;28;20199;-67
2021/10/19 02:31:57;;;;;;;7.80;7.00;;;12.60;99.90;;;;;;5032154;28;20412;-67
2021/10/19 02:34:23;;;;;;;7.33;6.80;;;12.70;99.90;;;;;;5031950;28;20172;-67
2021/10/19 02:36:49;;;;;;;6.60;6.20;;;12.70;99.90;;;;;;5031930;28;20168;-67
2021/10/19 02:39:15;;;;;;;6.83;6.30;;;12.70;99.90;;;;;;5031497;28;20751;-67
2021/10/19 02:41:41;;;;;;;7.83;7.13;;;12.70;99.90;;;;;;5031897;28;20466;-67
2021/10/19 02:44:07;;;;;;;7.60;6.97;;;12.70;99.90;;;;;;5031800;28;20458;-66
2021/10/19 02:46:33;;;;;;;8.63;7.90;;;12.80;99.90;;;;;;5031850;28;20172;-67
2021/10/19 02:48:59;;;;;;;7.60;6.90;;;12.70;99.90;;;;;;5031395;28;20200;-67
2021/10/19 02:51:25;;;;;;;6.73;6.10;;;12.70;99.90;;;;;;5031807;28;20903;-66
2021/10/19 02:53:51;;;;;;;6.03;5.47;;;12.70;99.90;;;;;;5031693;28;20418;-67
2021/10/19 02:56:16;;;;;;;7.20;6.10;;;12.80;99.90;;;;;;5034976;28;20176;-67
2021/10/19 02:58:42;;;;;;;6.00;5.50;;;12.80;99.90;;;;;;5035510;28;20180;-66
2021/10/19 03:01:07;;;;;;;5.40;4.97;;;12.80;99.90;;;;;;5035761;28;20476;-67
2021/10/19 03:03:33;;;;;;;5.30;4.80;;;12.90;99.90;;;;;;5035538;28;20192;-67
2021/10/19 03:05:59;;;;;;;5.10;4.80;;;12.90;99.90;;;;;;5035644;28;20536;-67
2021/10/19 03:08:24;;;;;;;4.47;4.07;;;13.00;99.90;;;;;;5035432;28;20173;-66
2021/10/19 03:10:50;;;;;;;4.57;4.27;;;12.90;99.90;;;;;;5035464;28;20738;-67
2021/10/19 03:13:16;;;;;;;4.00;3.80;;;12.80;99.90;;;;;;5036129;28;20194;-68
2021/10/19 03:15:42;;;;;;;3.80;3.50;;;12.90;99.90;;;;;;5035693;28;20494;-67
2021/10/19 03:18:08;;;;;;;3.60;3.40;;;12.90;99.90;;;;;;5035139;28;20472;-67
2021/10/19 03:20:34;;;;;;;4.67;2.80;;;12.90;99.90;;;;;;5035182;28;20208;-67
2021/10/19 03:23:00;;;;;;;3.60;3.40;;;12.90;99.90;;;;;;5035280;28;20809;-67
2021/10/19 03:25:26;;;;;;;3.17;2.97;;;12.90;99.90;;;;;;5035493;28;20433;-68
2021/10/19 03:27:51;;;;;;;2.80;2.60;;;13.00;99.90;;;;;;5035368;28;20169;-67
2021/10/19 03:30:17;;;;;;;2.83;2.73;;;13.00;99.90;;;;;;5034778;28;20673;-67
2021/10/19 03:32:43;;;;;;;2.17;2.07;;;12.90;99.90;;;;;;5035254;28;20378;-67
2021/10/19 03:35:09;;;;;;;2.37;2.27;;;13.10;99.90;;;;;;5033914;28;20636;-67
2021/10/19 03:37:34;;;;;;;2.37;2.27;;;13.10;99.90;;;;;;5035330;28;20283;-68
2021/10/19 03:40:00;;;;;;;4.50;2.80;;;13.10;99.90;;;;;;5034573;28;20207;-67
2021/10/19 03:42:25;;;;;;;2.17;2.07;;;13.10;99.90;;;;;;5034907;28;20235;-67
2021/10/19 03:44:51;;;;;;;2.83;2.73;;;13.10;99.90;;;;;;5035046;28;20203;-67
2021/10/19 03:47:17;;;;;;;2.20;2.10;;;13.00;99.90;;;;;;5034835;28;20543;-68
2021/10/19 03:49:42;;;;;;;2.47;2.37;;;13.20;99.90;;;;;;5034441;28;20197;-67
2021/10/19 03:52:08;;;;;;;2.73;2.63;;;13.10;99.90;;;;;;5034830;28;20173;-67
2021/10/19 03:54:34;;;;;;;2.57;2.43;;;13.10;99.90;;;;;;5034905;28;20176;-67
2021/10/19 03:56:59;;;;;;;2.33;2.23;;;13.10;99.90;;;;;;5034804;28;20582;-67
2021/10/19 03:59:25;;;;;;;2.53;2.43;;;13.20;99.90;;;;;;5034660;28;20167;-67
2021/10/19 04:01:50;;;;;;;2.73;2.53;;;13.20;99.90;;;;;;5034599;28;20177;-67
2021/10/19 04:04:16;;;;;;;2.30;2.20;;;13.20;99.90;;;;;;5034592;28;20261;-67
2021/10/19 04:06:41;;;;;;;2.43;2.33;;;13.10;99.90;;;;;;5034524;28;20291;-67
2021/10/19 04:09:07;;;;;;;2.07;2.00;;;13.10;99.90;;;;;;5034484;28;20219;-67
2021/10/19 04:11:32;;;;;;;2.10;2.00;;;13.20;99.90;;;;;;5034462;28;20195;-67
2021/10/19 04:13:58;;;;;;;1.87;1.87;;;13.60;99.90;;;;;;5034490;28;20181;-67
2021/10/19 04:16:24;;;;;;;1.83;1.73;;;13.10;99.90;;;;;;5034511;28;20544;-67
2021/10/19 04:18:49;;;;;;;1.83;1.83;;;13.20;99.90;;;;;;5034106;28;20645;-67
2021/10/19 04:21:15;;;;;;;1.97;1.87;;;13.20;99.90;;;;;;5034212;28;20740;-67
2021/10/19 04:23:40;;;;;;;1.70;1.70;;;13.50;99.90;;;;;;5034200;28;20204;-67
2021/10/19 04:26:06;;;;;;;1.40;1.40;;;13.50;99.90;;;;;;5034334;28;20591;-67
2021/10/19 04:28:32;;;;;;;1.40;1.40;;;13.10;99.90;;;;;;5032649;28;20169;-67
2021/10/19 04:30:58;;;;;;;1.70;1.70;;;13.00;99.90;;;;;;5033965;28;20603;-68
2021/10/19 04:33:24;;;;;;;1.90;1.80;;;13.10;99.90;;;;;;5034133;28;20455;-68
2021/10/19 04:35:49;;;;;;;1.47;1.47;;;13.40;99.90;;;;;;5034087;28;20169;-67
2021/10/19 04:38:15;;;;;;;1.70;1.60;;;13.00;99.90;;;;;;5033708;28;20179;-67
2021/10/19 04:40:40;;;;;;;1.67;1.67;;;13.10;99.90;;;;;;5033983;28;20193;-67
2021/10/19 04:43:06;;;;;;;1.37;1.37;;;13.10;99.90;;;;;;5034321;28;20291;-67
2021/10/19 04:45:32;;;;;;;1.37;1.37;;;13.10;99.90;;;;;;5033761;28;20664;-68
2021/10/19 04:48:01;;;;;;;1.50;1.50;;;13.10;99.90;;;;;;5033692;28;20249;-67
2021/10/19 04:50:26;;;;;;;1.60;1.50;;;13.10;99.90;;;;;;5033721;28;20549;-68
2021/10/19 04:52:52;;;;;;;1.70;1.70;;;13.10;99.90;;;;;;5033668;28;20498;-68
2021/10/19 04:55:18;;;;;;;1.60;1.60;;;13.20;99.90;;;;;;5033693;28;20498;-68
2021/10/19 04:57:43;;;;;;;1.40;1.40;;;13.10;99.90;;;;;;5033551;28;20165;-68
2021/10/19 05:00:09;;;;;;;1.70;1.60;;;13.00;99.90;;;;;;5033072;28;20184;-68
2021/10/19 05:02:45;;;;;;;1.70;1.60;;;13.10;99.90;;;;;;5033461;28;20196;-68
2021/10/19 05:05:11;;;;;;;1.53;1.53;;;13.10;99.90;;;;;;5033517;28;20783;-68
2021/10/19 05:07:37;;;;;;;1.40;1.40;;;13.20;99.90;;;;;;5033424;28;20414;-68
2021/10/19 05:10:03;;;;;;;1.50;1.50;;;13.10;99.90;;;;;;5032965;28;21055;-68
2021/10/19 05:12:28;;;;;;;1.50;1.50;;;13.20;99.90;;;;;;5033318;28;20592;-67
2021/10/19 05:14:54;;;;;;;1.57;1.57;;;13.10;99.90;;;;;;5051433;28;20179;-69
2021/10/19 05:17:19;;;;;;;4.73;1.60;;;13.20;99.90;;;;;;5052106;28;20667;-68
2021/10/19 05:19:45;;;;;;;1.60;1.60;;;13.10;99.90;;;;;;5063206;28;20213;-68
2021/10/19 05:22:10;;;;;;;1.57;1.47;;;13.10;99.90;;;;;;5065923;28;20175;-68
2021/10/19 05:24:36;;;;;;;1.53;1.53;;;13.20;99.90;;;;;;5052898;28;20174;-68
2021/10/19 05:27:02;;;;;;;1.77;1.67;;;13.20;99.90;;;;;;5053403;28;20164;-68
2021/10/19 05:29:29;;;;;;;1.60;1.50;;;13.20;99.90;;;;;;5052615;28;20176;-68
2021/10/19 05:31:55;;;;;;;1.63;1.63;;;13.30;99.90;;;;;;5052920;28;20507;-68
2021/10/19 05:34:20;;;;;;;4.10;1.93;;;13.80;99.90;;;;;;5052676;28;20460;-68
2021/10/19 05:36:46;;;;;;;1.50;1.50;;;13.20;99.90;;;;;;5053121;28;20793;-68
2021/10/19 05:39:15;;;;;;;1.90;1.87;;;13.20;99.90;;;;;;5052345;28;20544;-68
2021/10/19 05:41:41;;;;;;;2.10;2.00;;;13.30;99.90;;;;;;5052600;28;20214;-68
2021/10/19 05:44:07;;;;;;;1.80;1.80;;;13.40;99.90;;;;;;5052389;28;20840;-67
2021/10/19 05:46:33;;;;;;;2.13;2.03;;;13.30;99.90;;;;;;5052539;28;20445;-67
2021/10/19 05:48:58;;;;;;;1.80;1.70;;;13.30;99.90;;;;;;5052124;28;20860;-68
2021/10/19 05:51:24;;;;;;;2.07;2.03;;;13.60;99.90;;;;;;5052448;28;20188;-68
2021/10/19 05:53:49;;;;;;;1.80;1.80;;;13.30;99.90;;;;;;5052354;28;20164;-68
2021/10/19 05:56:15;;;;;;;1.90;1.90;;;13.30;99.90;;;;;;5052359;28;20295;-68
2021/10/19 05:58:40;;;;;;;2.17;2.07;;;13.30;99.90;;;;;;5051808;28;20595;-68
2021/10/19 06:01:06;;;;;;;2.00;1.90;;;13.30;99.90;;;;;;5052239;28;20273;-68
2021/10/19 06:03:32;;;;;;;2.13;2.03;;;13.40;99.90;;;;;;5052125;28;20202;-68
2021/10/19 06:05:58;;;;;;;1.87;1.87;;;13.40;99.90;;;;;;5052213;28;20446;-68
2021/10/19 06:08:23;;;;;;;1.50;1.50;;;13.40;99.90;;;;;;5051905;28;20214;-68
2021/10/19 06:10:49;;;;;;;1.80;1.70;;;13.40;99.90;;;;;;5052027;28;20191;-68
2021/10/19 06:13:15;;;;;;;1.80;1.80;;;13.30;99.90;;;;;;5052427;28;20203;-68
2021/10/19 06:15:42;;;;;;;1.80;1.70;;;13.30;99.90;;;;;;5052067;28;20179;-68
2021/10/19 06:18:08;;;;;;;2.10;2.00;;;13.40;99.90;;;;;;5051597;28;20189;-68
2021/10/19 06:20:33;;;;;;;2.00;1.90;;;13.50;99.90;;;;;;5051848;28;20496;-69
2021/10/19 06:22:59;;;;;;;1.80;1.80;;;13.50;99.90;;;;;;5051916;28;20196;-69
2021/10/19 06:25:25;;;;;;;1.80;1.70;;;13.60;99.90;;;;;;5051942;28;20164;-67
2021/10/19 06:27:51;;;;;;;2.20;2.10;;;13.60;99.90;;;;;;5051635;28;20456;-68
2021/10/19 06:30:16;;;;;;;2.00;2.00;;;13.60;99.90;;;;;;5050208;28;20250;-68
2021/10/19 06:32:42;;;;;;;1.73;1.73;;;13.70;99.90;;;;;;5051753;28;20179;-68
2021/10/19 06:35:09;;;;;;;1.80;1.80;;;13.70;99.90;;;;;;5051787;28;20174;-68
2021/10/19 06:37:36;;;;;;;1.60;1.60;;;13.70;99.90;;;;;;5051850;28;20209;-68
2021/10/19 06:40:02;;;;;;;1.97;1.93;;;13.70;99.90;;;;;;5051314;28;20437;-68
2021/10/19 06:42:28;;;;;;;1.87;1.80;;;13.70;99.90;;;;;;5051448;28;21315;-68
2021/10/19 06:44:54;;;;;;;1.50;1.50;;;13.70;99.90;;;;;;5051719;28;20402;-69
2021/10/19 06:47:19;;;;;;;1.70;1.70;;;14.10;99.90;;;;;;5051584;28;20171;-68
2021/10/19 06:49:45;;;;;;;1.77;1.77;;;13.70;99.90;;;;;;5051087;28;20215;-69
2021/10/19 06:52:10;;;;;;;1.77;1.63;;;13.70;99.90;;;;;;5051537;28;20157;-68
2021/10/19 06:54:36;;;;;;;1.93;1.73;;;13.70;99.90;;;;;;5051584;28;20235;-68
2021/10/19 06:57:01;;;;;;;1.73;1.73;;;13.80;99.90;;;;;;5051396;28;20214;-68
2021/10/19 06:59:27;;;;;;;1.57;1.57;;;14.00;99.90;;;;;;5051372;28;20245;-68
2021/10/19 07:01:52;;;;;;;1.80;1.80;;;13.90;99.90;;;;;;5051532;28;20174;-68
2021/10/19 07:04:18;;;;;;;1.60;1.50;;;13.80;99.90;;;;;;5051500;28;20428;-68
2021/10/19 07:06:43;;;;;;;1.50;1.50;;;13.90;99.90;;;;;;5051853;28;20206;-69
2021/10/19 07:09:09;;;;;;;1.93;1.93;;;13.90;99.90;;;;;;5051039;28;20589;-68
2021/10/19 07:11:35;;;;;;;1.63;1.63;;;13.80;99.90;;;;;;5051207;28;20313;-68
2021/10/19 07:14:00;;;;;;;1.80;1.80;;;13.80;99.90;;;;;;5051427;28;20537;-67
2021/10/19 07:16:26;;;;;;;2.20;2.10;;;13.90;99.90;;;;;;5051253;28;20172;-68
2021/10/19 07:18:51;;;;;;;1.90;1.90;;;13.90;99.90;;;;;;5050956;28;20164;-71
2021/10/19 07:21:17;;;;;;;1.87;1.87;;;13.70;99.90;;;;;;5051187;28;20272;-68
2021/10/19 07:23:43;;;;;;;1.87;1.77;;;13.90;99.90;;;;;;5051251;28;20672;-68
2021/10/19 07:26:08;;;;;;;2.20;2.10;;;14.20;99.90;;;;;;5051117;28;20160;-68
2021/10/19 07:28:34;;;;;;;1.63;1.63;;;13.90;99.90;;;;;;5050918;28;20658;-68
2021/10/19 07:30:59;;;;;;;2.07;1.97;;;14.00;99.90;;;;;;5050984;28;20199;-68
2021/10/19 07:33:25;;;;;;;1.87;1.87;;;13.90;99.90;;;;;;5051277;28;20171;-68
2021/10/19 07:35:50;;;;;;;2.60;2.50;;;14.00;99.90;;;;;;5051315;28;20168;-68
2021/10/19 07:38:16;;;;;;;2.33;2.23;;;14.00;99.90;;;;;;5050841;28;20184;-68
2021/10/19 07:40:42;;;;;;;2.00;2.00;;;14.10;99.90;;;;;;5051289;28;20195;-67
2021/10/19 07:43:07;;;;;;;1.90;1.80;;;14.10;99.90;;;;;;5054814;28;20231;-67
2021/10/19 07:45:34;;;;;;;1.67;1.60;;;14.00;99.90;;;;;;5054742;28;20174;-67
2021/10/19 07:48:03;;;;;;;2.53;2.07;;;14.20;99.90;;;;;;5054437;28;20629;-68
2021/10/19 07:50:30;;;;;;;1.60;1.60;;;14.20;99.90;;;;;;5054641;28;20431;-68
2021/10/19 07:53:00;;;;;;;1.50;1.50;;;14.30;99.90;;;;;;5054722;28;20452;-67
2021/10/19 07:55:27;;;;;;;1.70;1.60;;;14.30;99.90;;;;;;5054938;28;20497;-67
2021/10/19 07:57:54;;;;;;;1.50;1.50;;;14.30;99.90;;;;;;5054592;28;20417;-67
2021/10/19 08:00:23;;;;;;;1.50;1.50;;;14.20;99.90;;;;;;5054189;28;20845;-67
2021/10/19 08:02:49;;;;;;;1.73;1.70;;;14.30;99.90;;;;;;5054400;28;20534;-68
2021/10/19 08:05:15;;;;;;;1.53;1.53;;;14.40;99.90;;;;;;5054419;28;20403;-68
2021/10/19 08:07:42;;;;;;;2.10;1.40;;;14.30;99.90;;;;;;5054259;28;20402;-67
2021/10/19 08:10:09;;;;;;;1.43;1.43;;;14.30;99.90;;;;;;5054012;28;20430;-67
2021/10/19 08:12:35;;;;;;;1.30;1.30;;;14.30;99.90;;;;;;5054320;28;20452;-67
2021/10/19 08:15:01;;;;;;;1.60;1.60;;;14.30;99.90;;;;;;5054521;28;20398;-67
2021/10/19 08:17:28;;;;;;;1.30;1.30;;;14.40;99.90;;;;;;5054263;28;20172;-67
2021/10/19 08:19:59;;;;;;;1.60;1.53;;;14.50;99.90;;;;;;5053817;28;20940;-68
2021/10/19 08:22:28;;;;;;;1.70;1.70;;;14.40;99.90;;;;;;5053954;28;20398;-67
2021/10/19 08:24:55;;;;;;;1.60;1.60;;;14.40;99.90;;;;;;5053916;28;20476;-69
2021/10/19 08:27:24;;;;;;;1.40;1.33;;;14.40;99.90;;;;;;5054106;28;20435;-67
2021/10/19 08:29:50;;;;;;;1.60;1.50;;;14.20;99.90;;;;;;5053344;28;20965;-67
2021/10/19 08:32:16;;;;;;;1.50;1.50;;;14.40;99.90;;;;;;5053960;28;20406;-67
2021/10/19 08:34:42;;;;;;;1.10;1.10;;;14.50;99.90;;;;;;5053806;28;20425;-67
2021/10/19 08:37:07;;;;;;;1.53;1.47;;;15.00;99.90;;;;;;5053881;28;20179;-67
2021/10/19 08:39:33;;;;;;;1.30;1.30;;;14.50;99.90;;;;;;5053386;28;20168;-67
2021/10/19 08:42:00;;;;;;;1.53;1.53;;;14.60;99.90;;;;;;5053696;28;20184;-68
2021/10/19 08:44:26;;;;;;;1.60;1.60;;;14.60;99.90;;;;;;5053616;28;20196;-67
2021/10/19 08:46:52;;;;;;;1.47;1.47;;;14.60;99.90;;;;;;5053799;28;20426;-67
2021/10/19 08:49:18;;;;;;;1.43;1.43;;;14.70;99.90;;;;;;5053029;28;20510;-67
2021/10/19 08:51:43;;;;;;;1.73;1.63;;;14.70;99.90;;;;;;5053529;28;20485;-67
2021/10/19 08:54:09;;;;;;;1.60;1.50;;;14.80;99.90;;;;;;5052757;28;20225;-67
2021/10/19 08:56:39;;;;;;;1.50;1.40;;;14.70;99.90;;;;;;5053543;28;20595;-67
2021/10/19 08:59:05;;;;;;;1.30;1.30;;;14.80;99.90;;;;;;5053061;28;20446;-68
2021/10/19 09:01:36;;;;;;;1.67;1.67;;;14.90;99.90;;;;;;5053417;28;20469;-67
2021/10/19 09:04:07;;;;;;;1.37;1.37;;;14.80;99.90;;;;;;5053151;28;20666;-67
2021/10/19 09:06:35;;;;;;;1.37;1.37;;;14.90;99.90;;;;;;5053333;28;20448;-68
2021/10/19 09:09:16;;;;;;;1.30;1.30;;;14.90;99.90;;;;;;5052903;28;20406;-67
2021/10/19 09:11:47;;;;;;;1.30;1.30;;;14.80;99.90;;;;;;5053963;28;20402;-68
2021/10/19 09:14:14;;;;;;;1.40;1.40;;;15.20;99.90;;;;;;5053097;28;20421;-66
2021/10/19 09:16:44;;;;;;;2.40;1.30;;;14.80;99.90;;;;;;5053075;28;20497;-67
2021/10/19 09:19:12;;;;;;;1.40;1.40;;;14.80;99.90;;;;;;5052699;28;20419;-67
2021/10/19 09:21:43;;;;;;;1.30;1.30;;;14.90;99.90;;;;;;5052959;28;20902;-67
2021/10/19 09:24:32;;;;;;;1.50;1.50;;;14.90;99.90;;;;;;5052961;28;20544;-67
2021/10/19 09:26:57;;;;;;;1.53;1.53;;;14.90;99.90;;;;;;5052847;28;20425;-67
2021/10/19 09:29:25;;;;;;;1.60;1.60;;;14.90;99.90;;;;;;5052265;28;20875;-67
2021/10/19 09:31:56;;;;;;;1.40;1.40;;;14.90;99.90;;;;;;5053261;28;20715;-67
2021/10/19 09:34:22;;;;;;;1.50;1.50;;;15.00;99.90;;;;;;5052912;28;20401;-68
2021/10/19 09:36:51;;;;;;;1.80;1.80;;;15.10;99.90;;;;;;5052935;28;20782;-67
2021/10/19 09:39:37;;;;;;;1.63;1.63;;;15.10;99.90;;;;;;5052076;28;20407;-68
2021/10/19 09:42:09;;;;;;;1.67;1.67;;;15.20;99.90;;;;;;5052896;28;20413;-67
2021/10/19 09:44:36;;;;;;;2.10;2.00;;;15.30;99.90;;;;;;5052757;28;20485;-67
2021/10/19 09:47:03;;;;;;;2.20;2.00;;;15.20;99.90;;;;;;5052626;28;20406;-67
2021/10/19 09:49:30;;;;;;;2.17;2.10;;;15.20;99.90;;;;;;5052044;28;20497;-67
2021/10/19 09:52:00;;;;;;;2.27;2.17;;;15.20;99.90;;;;;;5052462;28;20398;-67
2021/10/19 09:54:29;;;;;;;3.43;2.30;;;15.10;99.90;;;;;;5052445;28;20417;-67
2021/10/19 09:56:59;;;;;;;2.60;2.50;;;15.20;99.90;;;;;;5052329;28;20441;-66
2021/10/19 09:59:25;;;;;;;2.83;2.73;;;15.20;99.90;;;;;;5052120;28;20414;-67
2021/10/19 10:01:51;;;;;;;2.80;2.70;;;15.20;99.90;;;;;;5052381;28;20406;-68
2021/10/19 10:04:18;;;;;;;2.60;2.50;;;15.20;99.90;;;;;;5051800;28;20473;-67
2021/10/19 10:06:45;;;;;;;2.87;2.67;;;15.20;99.90;;;;;;5052380;28;20184;-67
2021/10/19 10:09:11;;;;;;;2.40;2.30;;;15.40;99.90;;;;;;5051902;28;20400;-67
2021/10/19 10:11:41;;;;;;;3.40;3.10;;;15.30;99.90;;;;;;5052003;28;20429;-67
2021/10/19 10:14:07;;;;;;;2.90;2.80;;;15.40;99.90;;;;;;5052297;28;20480;-67
2021/10/19 10:16:44;;;;;;;2.70;2.60;;;15.40;99.90;;;;;;5052029;28;20402;-67
2021/10/19 10:19:15;;;;;;;2.90;2.80;;;15.60;99.90;;;;;;5051519;28;20409;-67
2021/10/19 10:21:51;;;;;;;3.10;2.90;;;15.60;99.90;;;;;;5052023;28;20782;-67
2021/10/19 10:24:31;;;;;;;3.70;3.50;;;15.50;99.90;;;;;;5051974;28;20908;-67
2021/10/19 10:27:14;;;;;;;3.43;3.23;;;15.60;99.90;;;;;;5051921;28;20398;-67
2021/10/19 10:29:42;;;;;;;3.30;3.10;;;15.60;99.90;;;;;;5051284;28;20445;-68
2021/10/19 10:32:29;;;;;;;3.90;3.53;;;15.70;99.90;;;;;;5052014;28;20464;-67
2021/10/19 10:35:11;;;;;;;2.90;2.80;;;15.70;99.90;;;;;;5051806;28;20418;-68
2021/10/19 10:37:57;;;;;;;3.83;3.60;;;16.40;99.90;;;;;;5051706;28;20407;-68
2021/10/19 10:40:33;;;;;;;3.40;3.20;;;16.50;99.90;;;;;;5051656;28;20939;-67
2021/10/19 10:43:16;;;;;;;3.70;3.40;;;15.70;99.90;;;;;;5051676;28;20503;-68
2021/10/19 10:45:42;;;;;;;4.03;3.73;;;15.70;99.90;;;;;;5052188;28;20403;-67
2021/10/19 10:48:08;;;;;;;3.30;3.10;;;15.50;99.90;;;;;;5051242;28;20965;-67
2021/10/19 10:50:35;;;;;;;3.73;3.40;;;15.80;99.90;;;;;;5051550;28;20429;-68
2021/10/19 10:53:04;;;;;;;3.70;3.40;;;15.90;99.90;;;;;;5051564;28;20509;-68
2021/10/19 10:55:40;;;;;;;3.17;3.07;;;16.10;99.90;;;;;;5051820;28;20407;-68
2021/10/19 10:58:06;;;;;;;4.53;4.13;;;16.00;99.90;;;;;;5051385;28;20406;-68
2021/10/19 11:00:32;;;;;;;4.07;3.67;;;16.10;99.90;;;;;;5051305;28;20434;-68
2021/10/19 11:03:07;;;;;;;3.73;3.43;;;16.10;99.90;;;;;;5051574;28;20539;-70
2021/10/19 11:05:35;;;;;;;3.30;3.10;;;16.30;99.90;;;;;;5051631;28;20187;-69
2021/10/19 11:08:01;;;;;;;3.50;3.30;;;16.30;99.90;;;;;;5051357;28;20442;-68
2021/10/19 11:10:27;;;;;;;4.37;3.20;;;16.20;99.90;;;;;;5051378;28;20965;-68
2021/10/19 11:13:00;;;;;;;3.90;3.50;;;16.20;99.90;;;;;;5051599;28;20242;-69
2021/10/19 11:15:26;;;;;;;3.27;3.07;;;16.40;99.90;;;;;;5052032;28;20176;-69
2021/10/19 11:17:53;;;;;;;3.50;3.30;;;16.20;99.90;;;;;;5055493;28;20921;-66
2021/10/19 11:20:21;;;;;;;4.23;4.00;;;16.70;99.90;;;;;;5055008;28;20747;-66
2021/10/19 11:22:48;;;;;;;3.50;3.20;;;16.30;99.90;;;;;;5055369;28;20533;-66
2021/10/19 11:25:14;;;;;;;3.40;3.20;;;16.50;99.90;;;;;;5055227;28;20430;-66
2021/10/19 11:27:42;;;;;;;3.40;3.20;;;16.30;99.90;;;;;;5055075;28;20810;-66
2021/10/19 11:30:08;;;;;;;3.87;3.60;;;16.20;99.90;;;;;;5054526;28;20445;-65
2021/10/19 11:32:35;;;;;;;4.50;4.20;;;16.30;99.90;;;;;;5055105;28;20800;-66
2021/10/19 11:35:01;;;;;;;4.20;3.90;;;16.30;99.90;;;;;;5055098;28;20390;-67
2021/10/19 11:37:27;;;;;;;3.50;3.17;;;16.30;99.90;;;;;;5055154;28;20402;-66
2021/10/19 11:40:11;;;;;;;4.83;4.33;;;16.40;99.90;;;;;;5054481;28;20441;-66
2021/10/19 11:42:50;;;;;;;3.97;3.77;;;16.40;99.90;;;;;;5054982;28;20656;-65
2021/10/19 11:45:18;;;;;;;3.90;3.70;;;16.40;99.90;;;;;;5054975;28;20398;-66
2021/10/19 11:48:02;;;;;;;3.93;3.63;;;16.40;99.90;;;;;;5054883;28;20406;-66
2021/10/19 11:50:28;;;;;;;4.47;4.20;;;16.50;99.90;;;;;;5054534;28;20418;-66
2021/10/19 11:52:55;;;;;;;4.10;3.80;;;16.60;99.90;;;;;;5054565;28;20941;-66
2021/10/19 11:55:21;;;;;;;3.83;3.63;;;16.60;99.90;;;;;;5054664;28;20774;-65
2021/10/19 11:57:49;;;;;;;4.20;4.00;;;16.70;99.90;;;;;;5054623;28;20544;-66
2021/10/19 12:00:15;;;;;;;3.63;3.43;;;16.80;99.90;;;;;;5054220;28;20191;-66
2021/10/19 12:02:56;;;;;;;4.53;4.20;;;16.90;99.90;;;;;;5054596;28;20445;-67
2021/10/19 12:05:23;;;;;;;3.97;3.77;;;17.10;99.90;;;;;;5054417;28;20414;-66
2021/10/19 12:07:51;;;;;;;4.97;4.60;;;17.10;99.90;;;;;;5054469;28;20464;-69
2021/10/19 12:10:46;;;;;;;4.37;4.07;;;17.20;99.90;;;;;;5054150;28;20426;-68
2021/10/19 12:13:12;;;;;;;4.13;3.83;;;17.20;99.90;;;;;;5053264;28;20511;-67
2021/10/19 12:15:38;;;;;;;4.03;3.70;;;17.30;99.90;;;;;;5054165;28;20437;-69
2021/10/19 12:18:07;;;;;;;4.17;3.90;;;17.50;99.90;;;;;;5054118;28;20591;-68
2021/10/19 12:20:37;;;;;;;4.13;3.83;;;17.50;99.90;;;;;;5054159;28;20426;-68
2021/10/19 12:23:08;;;;;;;3.40;3.20;;;17.40;99.90;;;;;;5052899;28;20941;-68
2021/10/19 12:25:49;;;;;;;3.73;3.43;;;17.50;99.90;;;;;;5054245;28;20775;-68
2021/10/19 12:28:21;;;;;;;3.83;3.53;;;17.50;99.90;;;;;;5052437;28;20411;-68
2021/10/19 12:30:48;;;;;;;4.10;3.80;;;17.60;99.90;;;;;;5051316;28;20937;-69
2021/10/19 12:33:21;;;;;;;2.80;2.60;;;17.40;99.90;;;;;;5054292;28;20780;-69
2021/10/19 12:36:04;;;;;;;3.20;3.00;;;17.40;99.90;;;;;;5053708;28;20784;-69
2021/10/19 12:38:33;;;;;;;3.73;3.10;;;17.30;99.90;;;;;;5053584;28;20411;-69
2021/10/19 12:41:15;;;;;;;2.90;2.70;;;17.30;99.90;;;;;;5053755;28;20423;-69
2021/10/19 12:43:47;;;;;;;2.77;2.57;;;17.30;99.90;;;;;;5059540;28;20798;-68
2021/10/19 12:46:13;;;;;;;2.70;2.53;;;17.30;99.90;;;;;;5073886;28;20406;-69